createdAt,value
2019-03-15T00:00:26.354Z,90.90
2019-03-15T00:02:54.885Z,90.90
2019-03-15T00:05:32.095Z,90.60
2019-03-15T00:08:00.518Z,90.60
2019-03-15T00:10:28.946Z,90.50
2019-03-15T00:12:57.378Z,90.50
2019-03-15T00:15:25.830Z,90.50
2019-03-15T00:17:54.326Z,90.60
2019-03-15T00:20:22.898Z,90.40
2019-03-15T00:23:10.683Z,90.40
2019-03-15T00:25:39.153Z,90.30
2019-03-15T00:28:07.647Z,90.30
2019-03-15T00:30:36.130Z,90.40
2019-03-15T00:33:04.688Z,90.50
2019-03-15T00:35:34.256Z,91.00
2019-03-15T00:38:02.677Z,91.00
2019-03-15T00:40:31.142Z,91.20
2019-03-15T00:42:59.600Z,91.40
2019-03-15T00:45:28.086Z,91.50
2019-03-15T00:47:56.564Z,91.60
2019-03-15T00:50:26.626Z,91.80
2019-03-15T00:52:55.067Z,91.80
2019-03-15T00:55:23.498Z,92.00
2019-03-15T00:57:51.923Z,92.10
2019-03-15T01:00:20.518Z,92.20
2019-03-15T01:02:49.148Z,92.10
2019-03-15T01:05:17.578Z,92.10
2019-03-15T01:07:46.036Z,92.20
2019-03-15T01:10:14.485Z,92.20
2019-03-15T01:12:42.927Z,92.40
2019-03-15T01:15:14.550Z,92.50
2019-03-15T01:17:42.963Z,92.40
2019-03-15T01:20:19.800Z,92.50
2019-03-15T01:22:48.328Z,92.80
2019-03-15T01:25:16.742Z,92.40
2019-03-15T01:27:45.219Z,92.30
2019-03-15T01:30:13.843Z,92.10
2019-03-15T01:32:42.343Z,91.90
2019-03-15T01:35:10.839Z,91.90
2019-03-15T01:37:39.249Z,92.00
2019-03-15T01:40:08.303Z,91.90
2019-03-15T01:42:36.777Z,91.70
2019-03-15T01:45:06.399Z,91.60
2019-03-15T01:47:34.878Z,91.50
2019-03-15T01:50:04.274Z,91.40
2019-03-15T01:52:33.468Z,91.20
2019-03-15T01:55:02.077Z,91.00
2019-03-15T01:57:30.534Z,90.90
2019-03-15T01:59:58.984Z,91.00
2019-03-15T02:02:27.393Z,90.80
2019-03-15T02:04:55.985Z,90.90
2019-03-15T02:07:24.431Z,91.20
2019-03-15T02:09:52.890Z,90.80
2019-03-15T02:12:21.881Z,90.70
2019-03-15T02:14:50.485Z,90.80
2019-03-15T02:17:18.888Z,91.00
2019-03-15T02:19:47.315Z,91.20
2019-03-15T02:22:15.805Z,91.30
2019-03-15T02:24:44.306Z,91.40
2019-03-15T02:27:13.100Z,91.40
2019-03-15T02:29:41.522Z,91.40
2019-03-15T02:32:10.158Z,91.30
2019-03-15T02:34:38.683Z,91.30
2019-03-15T02:37:07.275Z,91.30
2019-03-15T02:39:35.747Z,91.30
2019-03-15T02:42:06.867Z,91.50
2019-03-15T02:44:35.295Z,91.60
2019-03-15T02:47:03.745Z,91.80
2019-03-15T02:49:32.156Z,91.90
2019-03-15T02:52:00.765Z,92.10
2019-03-15T02:54:29.249Z,92.20
2019-03-15T02:56:57.729Z,92.50
2019-03-15T02:59:26.175Z,92.60
2019-03-15T03:01:54.613Z,92.60
2019-03-15T03:04:23.187Z,92.50
2019-03-15T03:06:51.652Z,92.50
2019-03-15T03:09:20.098Z,92.50
2019-03-15T03:11:50.322Z,92.60
2019-03-15T03:14:18.813Z,92.50
2019-03-15T03:16:47.324Z,92.50
2019-03-15T03:19:17.410Z,92.50
2019-03-15T03:21:45.831Z,92.30
2019-03-15T03:24:14.290Z,92.40
2019-03-15T03:26:42.744Z,92.50
2019-03-15T03:29:11.198Z,92.50
2019-03-15T03:31:39.747Z,92.50
2019-03-15T03:34:08.600Z,92.60
2019-03-15T03:36:37.210Z,92.70
2019-03-15T03:39:10.096Z,92.70
2019-03-15T03:41:38.578Z,92.70
2019-03-15T03:44:07.006Z,92.60
2019-03-15T03:46:35.520Z,92.60
2019-03-15T03:49:03.971Z,92.50
2019-03-15T03:51:32.431Z,92.50
2019-03-15T03:54:00.850Z,92.50
2019-03-15T03:56:29.311Z,92.60
2019-03-15T03:58:57.924Z,92.40
2019-03-15T04:01:26.732Z,92.40
2019-03-15T04:03:55.240Z,92.40
2019-03-15T04:06:23.699Z,92.40
2019-03-15T04:08:52.211Z,92.50
2019-03-15T04:11:20.651Z,92.40
2019-03-15T04:13:49.074Z,92.20
2019-03-15T04:16:20.212Z,92.30
2019-03-15T04:18:48.638Z,92.40
2019-03-15T04:21:17.065Z,92.30
2019-03-15T04:23:45.498Z,92.20
2019-03-15T04:26:13.906Z,92.20
2019-03-15T04:28:42.498Z,92.10
2019-03-15T04:31:10.919Z,92.10
2019-03-15T04:33:39.342Z,92.40
2019-03-15T04:36:07.802Z,92.10
2019-03-15T04:38:36.244Z,92.20
2019-03-15T04:41:04.770Z,92.20
2019-03-15T04:43:33.246Z,92.30
2019-03-15T04:46:01.665Z,92.30
2019-03-15T04:48:30.137Z,92.30
2019-03-15T04:50:58.556Z,92.40
2019-03-15T04:53:27.024Z,92.40
2019-03-15T04:55:55.446Z,92.50
2019-03-15T04:58:23.850Z,92.50
2019-03-15T05:00:52.292Z,92.50
2019-03-15T05:03:20.739Z,92.60
2019-03-15T05:06:01.933Z,92.60
2019-03-15T05:08:19.354Z,92.70
2019-03-15T05:10:47.812Z,92.60
2019-03-15T05:13:16.242Z,92.80
2019-03-15T05:15:44.683Z,92.80
2019-03-15T05:18:13.110Z,92.70
2019-03-15T05:20:41.534Z,92.70
2019-03-15T05:23:09.987Z,92.60
2019-03-15T05:25:38.454Z,92.50
2019-03-15T05:28:07.005Z,92.50
2019-03-15T05:30:36.039Z,92.60
2019-03-15T05:33:04.444Z,92.50
2019-03-15T05:35:32.964Z,92.50
2019-03-15T05:38:01.405Z,92.50
2019-03-15T05:40:29.858Z,92.50
2019-03-15T05:42:58.344Z,92.60
2019-03-15T05:45:26.783Z,92.60
2019-03-15T05:47:55.288Z,92.60
2019-03-15T05:50:23.733Z,92.60
2019-03-15T05:52:52.168Z,92.80
2019-03-15T05:55:20.609Z,93.00
2019-03-15T05:57:49.041Z,93.30
2019-03-15T06:00:17.636Z,93.40
2019-03-15T06:02:46.094Z,93.60
2019-03-15T06:05:14.510Z,93.60
2019-03-15T06:07:44.343Z,93.60
2019-03-15T06:10:13.493Z,93.80
2019-03-15T06:12:43.500Z,93.80
2019-03-15T06:15:12.537Z,94.00
2019-03-15T06:17:40.987Z,94.00
2019-03-15T06:20:30.273Z,94.20
2019-03-15T06:22:58.737Z,94.30
2019-03-15T06:25:27.394Z,94.50
2019-03-15T06:27:55.832Z,94.80
2019-03-15T06:30:24.291Z,95.00
2019-03-15T06:32:52.740Z,95.10
2019-03-15T06:35:21.268Z,94.90
2019-03-15T06:37:49.766Z,95.10
2019-03-15T06:40:18.230Z,95.20
2019-03-15T06:42:46.709Z,95.10
2019-03-15T06:45:15.397Z,95.30
2019-03-15T06:47:43.826Z,95.50
2019-03-15T06:50:13.682Z,95.50
2019-03-15T06:52:42.471Z,95.60
2019-03-15T06:55:11.051Z,95.60
2019-03-15T06:57:39.494Z,95.60
2019-03-15T07:00:17.583Z,95.50
2019-03-15T07:02:46.348Z,95.60
2019-03-15T07:05:15.152Z,95.90
2019-03-15T07:07:43.719Z,95.80
2019-03-15T07:10:12.896Z,96.10
2019-03-15T07:12:41.382Z,96.00
2019-03-15T07:15:11.546Z,96.10
2019-03-15T07:17:39.990Z,96.10
2019-03-15T07:20:11.488Z,96.20
2019-03-15T07:22:39.995Z,96.30
2019-03-15T07:25:09.718Z,96.40
2019-03-15T07:27:38.242Z,96.30
2019-03-15T07:30:14.584Z,96.40
2019-03-15T07:32:43.072Z,96.60
2019-03-15T07:35:11.590Z,96.60
2019-03-15T07:37:40.036Z,96.90
2019-03-15T07:40:10.272Z,96.80
2019-03-15T07:42:38.966Z,96.80
2019-03-15T07:45:09.765Z,96.90
2019-03-15T07:47:38.329Z,96.80
2019-03-15T07:50:09.933Z,96.70
2019-03-15T07:52:38.475Z,96.60
2019-03-15T07:55:08.634Z,96.50
2019-03-15T07:57:38.615Z,96.50
2019-03-15T08:00:15.228Z,96.40
2019-03-15T08:02:43.678Z,96.50
2019-03-15T08:05:15.105Z,96.30
2019-03-15T08:07:45.619Z,96.40
2019-03-15T08:10:13.964Z,96.40
2019-03-15T08:12:42.738Z,96.50
2019-03-15T08:15:13.162Z,96.50
2019-03-15T08:17:41.701Z,96.60
2019-03-15T08:20:11.981Z,96.50
2019-03-15T08:22:40.620Z,96.70
2019-03-15T08:25:10.769Z,96.80
2019-03-15T08:27:39.295Z,96.90
2019-03-15T08:30:35.491Z,96.80
2019-03-15T08:33:09.992Z,96.80
2019-03-15T08:35:34.133Z,96.80
2019-03-15T08:38:05.319Z,96.70
2019-03-15T08:40:32.884Z,96.70
2019-03-15T08:43:01.443Z,96.70
2019-03-15T08:45:29.864Z,96.80
2019-03-15T08:47:58.342Z,96.70
2019-03-15T08:50:26.770Z,96.90
2019-03-15T08:52:55.263Z,96.90
2019-03-15T08:55:24.034Z,97.40
2019-03-15T08:57:52.566Z,97.00
2019-03-15T09:00:33.138Z,97.10
2019-03-15T09:03:01.695Z,96.90
2019-03-15T09:05:30.113Z,96.90
2019-03-15T09:07:58.623Z,96.90
2019-03-15T09:10:27.221Z,96.90
2019-03-15T09:12:55.682Z,97.10
2019-03-15T09:15:24.285Z,97.00
2019-03-15T09:17:53.150Z,97.10
2019-03-15T09:20:21.655Z,97.10
2019-03-15T09:22:50.110Z,97.00
2019-03-15T09:25:20.741Z,97.00
2019-03-15T09:27:49.386Z,96.70
2019-03-15T09:30:23.820Z,96.60
2019-03-15T09:32:48.102Z,96.70
2019-03-15T09:35:16.589Z,96.50
2019-03-15T09:37:47.400Z,96.40
2019-03-15T09:40:16.172Z,96.40
2019-03-15T09:42:44.655Z,96.30
2019-03-15T09:45:17.518Z,96.20
2019-03-15T09:47:46.080Z,96.00
2019-03-15T09:50:26.420Z,96.10
2019-03-15T09:52:46.058Z,95.80
2019-03-15T09:55:14.986Z,95.70
2019-03-15T09:57:43.510Z,95.70
2019-03-15T10:00:16.360Z,95.80
2019-03-15T10:02:48.042Z,95.20
2019-03-15T10:05:35.805Z,95.20
2019-03-15T10:08:09.333Z,95.20
2019-03-15T10:10:37.765Z,95.50
2019-03-15T10:13:06.586Z,95.40
2019-03-15T10:15:35.112Z,95.80
2019-03-15T10:18:03.603Z,95.90
2019-03-15T10:20:32.034Z,95.90
2019-03-15T10:23:05.986Z,96.00
2019-03-15T10:25:30.688Z,95.70
2019-03-15T10:27:59.110Z,95.50
2019-03-15T10:30:27.562Z,95.70
2019-03-15T10:32:56.093Z,95.90
2019-03-15T10:35:24.569Z,95.90
2019-03-15T10:37:53.024Z,95.70
2019-03-15T10:40:22.787Z,95.60
2019-03-15T10:42:55.321Z,95.50
2019-03-15T10:45:22.627Z,95.60
2019-03-15T10:47:51.076Z,95.60
2019-03-15T10:50:20.073Z,95.90
2019-03-15T10:52:48.516Z,96.10
2019-03-15T10:55:20.554Z,96.30
2019-03-15T10:57:47.392Z,96.20
2019-03-15T11:00:20.774Z,96.60
2019-03-15T11:02:49.439Z,96.30
2019-03-15T11:05:18.026Z,96.40
2019-03-15T11:07:46.522Z,96.40
2019-03-15T11:10:15.057Z,96.20
2019-03-15T11:12:43.706Z,96.20
2019-03-15T11:15:16.020Z,96.10
2019-03-15T11:17:44.730Z,96.10
2019-03-15T11:20:14.926Z,96.00
2019-03-15T11:22:43.450Z,96.10
2019-03-15T11:25:12.319Z,96.20
2019-03-15T11:27:40.813Z,96.00
2019-03-15T11:30:34.195Z,95.80
2019-03-15T11:33:02.016Z,95.80
2019-03-15T11:35:30.421Z,95.40
2019-03-15T11:38:02.466Z,95.40
2019-03-15T11:40:32.284Z,95.40
2019-03-15T11:43:00.690Z,95.20
2019-03-15T11:45:29.142Z,95.10
2019-03-15T11:48:04.749Z,94.90
2019-03-15T11:50:27.869Z,94.70
2019-03-15T11:52:56.294Z,94.70
2019-03-15T11:55:24.735Z,94.70
2019-03-15T11:57:55.543Z,94.70
2019-03-15T12:00:24.170Z,94.80
2019-03-15T12:02:52.625Z,95.10
2019-03-15T12:05:21.128Z,94.80
2019-03-15T12:07:49.569Z,94.70
2019-03-15T12:10:18.356Z,94.70
2019-03-15T12:12:46.865Z,94.70
2019-03-15T12:15:17.392Z,94.90
2019-03-15T12:17:45.940Z,94.80
2019-03-15T12:20:14.434Z,94.90
2019-03-15T12:22:42.928Z,95.10
2019-03-15T12:25:12.306Z,94.80
2019-03-15T12:27:40.739Z,94.40
2019-03-15T12:30:13.827Z,94.10
2019-03-15T12:32:41.518Z,93.70
2019-03-15T12:35:11.305Z,93.50
2019-03-15T12:37:39.729Z,93.50
2019-03-15T12:40:10.533Z,93.20
2019-03-15T12:42:39.041Z,92.80
2019-03-15T12:45:11.519Z,92.70
2019-03-15T12:47:40.070Z,92.10
2019-03-15T12:50:12.428Z,91.80
2019-03-15T12:52:48.929Z,91.40
2019-03-15T12:55:13.126Z,91.20
2019-03-15T12:57:41.578Z,91.20
2019-03-15T13:00:22.327Z,90.70
2019-03-15T13:02:50.763Z,90.50
2019-03-15T13:05:19.176Z,90.30
2019-03-15T13:07:47.618Z,90.00
2019-03-15T13:10:18.368Z,90.20
2019-03-15T13:12:46.841Z,90.30
2019-03-15T13:15:16.794Z,90.30
2019-03-15T13:17:47.333Z,90.20
2019-03-15T13:20:16.727Z,90.10
2019-03-15T13:22:47.839Z,90.00
2019-03-15T13:25:16.315Z,90.00
2019-03-15T13:27:44.741Z,89.30
2019-03-15T13:30:15.352Z,89.10
2019-03-15T13:32:43.976Z,88.80
2019-03-15T13:35:12.865Z,88.30
2019-03-15T13:37:43.205Z,87.70
2019-03-15T13:40:16.279Z,87.30
2019-03-15T13:42:44.733Z,87.70
2019-03-15T13:45:15.294Z,87.00
2019-03-15T13:47:43.738Z,87.80
2019-03-15T13:50:18.071Z,87.90
2019-03-15T13:52:46.546Z,88.50
2019-03-15T13:55:15.127Z,88.50
2019-03-15T13:57:43.743Z,87.70
2019-03-15T14:00:14.198Z,87.10
2019-03-15T14:02:42.845Z,87.10
2019-03-15T14:05:11.708Z,87.30
2019-03-15T14:07:40.155Z,88.10
2019-03-15T14:10:10.895Z,88.80
2019-03-15T14:12:39.375Z,89.20
2019-03-15T14:15:21.898Z,89.80
2019-03-15T14:17:50.382Z,89.90
2019-03-15T14:20:18.812Z,90.00
2019-03-15T14:22:47.336Z,90.00
2019-03-15T14:25:26.964Z,90.00
2019-03-15T14:27:55.424Z,89.70
2019-03-15T14:30:23.950Z,89.90
2019-03-15T14:32:52.431Z,89.30
2019-03-15T14:35:20.858Z,89.50
2019-03-15T14:37:49.469Z,89.30
2019-03-15T14:40:18.136Z,88.80
2019-03-15T14:42:47.823Z,88.80
2019-03-15T14:45:16.630Z,88.50
2019-03-15T14:47:45.220Z,88.20
2019-03-15T14:50:14.666Z,88.10
2019-03-15T14:52:43.175Z,87.00
2019-03-15T14:55:13.095Z,86.00
2019-03-15T14:57:51.790Z,86.00
2019-03-15T15:00:19.557Z,86.20
2019-03-15T15:02:48.102Z,86.20
2019-03-15T15:05:16.649Z,86.00
2019-03-15T15:07:45.110Z,85.60
2019-03-15T15:10:17.402Z,86.60
2019-03-15T15:12:45.914Z,85.90
2019-03-15T15:15:17.441Z,86.00
2019-03-15T15:17:45.849Z,86.00
2019-03-15T15:20:14.370Z,86.00
2019-03-15T15:22:42.876Z,85.60
2019-03-15T15:25:13.554Z,85.50
2019-03-15T15:27:41.992Z,85.10
2019-03-15T15:30:15.412Z,85.00
2019-03-15T15:32:43.897Z,85.50
2019-03-15T15:35:13.079Z,85.10
2019-03-15T15:37:41.591Z,84.40
2019-03-15T15:40:15.046Z,84.50
2019-03-15T15:42:43.502Z,84.40
2019-03-15T15:45:13.584Z,84.60
2019-03-15T15:47:42.103Z,84.60
2019-03-15T15:50:15.145Z,84.50
2019-03-15T15:52:42.872Z,84.60
2019-03-15T15:55:17.211Z,85.60
2019-03-15T15:57:45.714Z,86.00
2019-03-15T16:00:17.961Z,86.50
2019-03-15T16:02:46.507Z,86.30
2019-03-15T16:05:15.083Z,86.70
2019-03-15T16:07:43.622Z,86.70
2019-03-15T16:10:13.196Z,86.60
2019-03-15T16:12:41.943Z,86.30
2019-03-15T16:15:12.568Z,86.00
2019-03-15T16:17:41.029Z,86.20
2019-03-15T16:20:10.815Z,86.10
2019-03-15T16:22:39.308Z,86.40
2019-03-15T16:25:09.413Z,86.50
2019-03-15T16:27:37.923Z,86.70
2019-03-15T16:30:19.672Z,86.60
2019-03-15T16:32:48.263Z,87.10
2019-03-15T16:35:16.721Z,87.20
2019-03-15T16:37:45.176Z,87.00
2019-03-15T16:40:15.417Z,87.50
2019-03-15T16:42:44.028Z,87.70
2019-03-15T16:45:22.958Z,87.50
2019-03-15T16:47:51.406Z,87.80
2019-03-15T16:50:19.885Z,87.70
2019-03-15T16:52:48.353Z,87.80
2019-03-15T16:55:16.846Z,87.80
2019-03-15T16:57:45.281Z,88.30
2019-03-15T17:00:17.278Z,88.30
2019-03-15T17:02:45.802Z,88.00
2019-03-15T17:05:14.766Z,87.60
2019-03-15T17:07:43.294Z,88.00
2019-03-15T17:10:16.000Z,87.80
2019-03-15T17:12:44.681Z,87.70
2019-03-15T17:15:18.749Z,87.80
2019-03-15T17:17:47.243Z,88.10
2019-03-15T17:20:15.686Z,88.20
2019-03-15T17:22:44.106Z,88.20
2019-03-15T17:25:13.087Z,88.50
2019-03-15T17:27:41.608Z,88.60
2019-03-15T17:30:29.460Z,88.60
2019-03-15T17:32:57.899Z,88.90
2019-03-15T17:35:26.326Z,89.30
2019-03-15T17:37:54.746Z,89.50
2019-03-15T17:40:23.190Z,89.90
2019-03-15T17:42:51.626Z,90.10
2019-03-15T17:45:20.084Z,90.40
2019-03-15T17:47:48.583Z,90.30
2019-03-15T17:50:18.277Z,90.40
2019-03-15T17:52:46.751Z,90.30
2019-03-15T17:55:16.535Z,90.40
2019-03-15T17:57:45.888Z,90.70
2019-03-15T18:00:24.552Z,90.80
2019-03-15T18:02:52.998Z,90.90
2019-03-15T18:05:21.435Z,91.00
2019-03-15T18:07:50.245Z,91.10
2019-03-15T18:10:18.816Z,91.10
2019-03-15T18:12:47.491Z,91.20
2019-03-15T18:15:16.017Z,91.30
2019-03-15T18:17:44.464Z,91.30
2019-03-15T18:20:12.893Z,91.30
2019-03-15T18:22:41.428Z,91.40
2019-03-15T18:25:10.833Z,91.20
2019-03-15T18:27:39.410Z,91.00
2019-03-15T18:30:12.625Z,91.10
2019-03-15T18:32:41.112Z,91.10
2019-03-15T18:35:10.573Z,91.10
2019-03-15T18:37:39.109Z,91.10
2019-03-15T18:40:10.370Z,91.00
2019-03-15T18:42:41.831Z,90.90
2019-03-15T18:45:14.555Z,91.00
2019-03-15T18:47:43.154Z,91.00
2019-03-15T18:50:25.426Z,91.00
2019-03-15T18:52:54.003Z,91.20
2019-03-15T18:55:23.953Z,91.20
2019-03-15T18:57:52.562Z,91.20
2019-03-15T19:00:26.702Z,91.30
2019-03-15T19:02:55.132Z,91.40
2019-03-15T19:05:23.598Z,91.60
2019-03-15T19:07:52.044Z,91.60
2019-03-15T19:10:20.486Z,91.60
2019-03-15T19:12:48.917Z,91.90
2019-03-15T19:15:21.831Z,92.00
2019-03-15T19:17:50.389Z,92.00
2019-03-15T19:20:18.928Z,92.00
2019-03-15T19:22:47.481Z,92.10
2019-03-15T19:25:16.245Z,92.00
2019-03-15T19:27:44.852Z,91.90
2019-03-15T19:30:19.329Z,91.70
2019-03-15T19:32:47.841Z,91.70
2019-03-15T19:35:16.259Z,91.60
2019-03-15T19:37:44.995Z,91.50
2019-03-15T19:40:18.629Z,91.50
2019-03-15T19:42:47.140Z,91.50
2019-03-15T19:45:16.519Z,91.50
2019-03-15T19:47:45.175Z,91.50
2019-03-15T19:50:22.876Z,91.60
2019-03-15T19:52:51.374Z,91.70
2019-03-15T19:55:19.838Z,91.80
2019-03-15T19:57:48.254Z,91.80
2019-03-15T20:00:20.722Z,91.90
2019-03-15T20:02:49.216Z,92.00
2019-03-15T20:05:17.770Z,92.20
2019-03-15T20:07:46.669Z,92.30
2019-03-15T20:10:17.244Z,92.30
2019-03-15T20:12:46.071Z,92.30
2019-03-15T20:15:15.703Z,92.20
2019-03-15T20:17:44.489Z,92.20
2019-03-15T20:20:20.398Z,92.20
2019-03-15T20:22:49.014Z,92.30
2019-03-15T20:25:18.149Z,92.40
2019-03-15T20:27:46.728Z,92.40
2019-03-15T20:30:21.491Z,92.30
2019-03-15T20:32:49.434Z,92.30
2019-03-15T20:35:17.890Z,92.30
2019-03-15T20:37:46.393Z,92.30
2019-03-15T20:40:17.460Z,92.30
2019-03-15T20:42:45.924Z,92.20
2019-03-15T20:45:19.355Z,92.40
2019-03-15T20:47:47.778Z,92.40
2019-03-15T20:50:16.271Z,92.40
2019-03-15T20:52:44.822Z,92.40
2019-03-15T20:55:13.275Z,92.40
2019-03-15T20:57:41.712Z,92.40
2019-03-15T21:00:12.874Z,92.40
2019-03-15T21:02:41.365Z,92.30
2019-03-15T21:05:10.061Z,92.20
2019-03-15T21:07:38.618Z,92.00
2019-03-15T21:10:12.842Z,91.80
2019-03-15T21:12:41.355Z,91.50
2019-03-15T21:15:12.345Z,91.30
2019-03-15T21:17:41.003Z,91.30
2019-03-15T21:20:36.251Z,91.10
2019-03-15T21:23:04.781Z,91.00
2019-03-15T21:25:33.246Z,90.90
2019-03-15T21:28:01.720Z,90.80
2019-03-15T21:30:30.145Z,90.70
2019-03-15T21:32:58.615Z,90.70
2019-03-15T21:35:27.025Z,90.50
2019-03-15T21:37:55.486Z,90.50
2019-03-15T21:40:23.990Z,90.40
2019-03-15T21:42:52.432Z,90.30
2019-03-15T21:45:20.931Z,90.30
2019-03-15T21:47:49.421Z,90.10
2019-03-15T21:50:19.035Z,90.00
2019-03-15T21:52:47.463Z,89.70
2019-03-15T21:55:15.915Z,89.40
2019-03-15T21:57:44.330Z,89.40
2019-03-15T22:00:25.266Z,89.60
2019-03-15T22:02:53.767Z,89.80
2019-03-15T22:05:22.231Z,89.60
2019-03-15T22:07:50.694Z,89.50
2019-03-15T22:10:19.211Z,89.40
2019-03-15T22:12:47.698Z,89.20
2019-03-15T22:15:16.168Z,89.30
2019-03-15T22:17:44.628Z,89.30
2019-03-15T22:20:19.532Z,89.40
2019-03-15T22:22:48.065Z,89.50
2019-03-15T22:25:16.576Z,89.30
2019-03-15T22:27:45.012Z,89.30
2019-03-15T22:30:14.384Z,89.40
2019-03-15T22:32:42.869Z,89.50
2019-03-15T22:35:11.567Z,89.80
2019-03-15T22:37:40.058Z,90.00
2019-03-15T22:40:09.987Z,89.80
2019-03-15T22:42:38.637Z,89.90
2019-03-15T22:45:09.672Z,90.00
2019-03-15T22:47:38.156Z,90.10
2019-03-15T22:50:08.434Z,90.10
2019-03-15T22:52:36.939Z,90.20
2019-03-15T22:55:07.061Z,90.30
2019-03-15T22:57:35.515Z,90.30
2019-03-15T23:00:07.341Z,90.40
2019-03-15T23:02:35.923Z,90.30
2019-03-15T23:05:05.339Z,90.30
2019-03-15T23:07:33.755Z,90.20
2019-03-15T23:10:02.230Z,90.20
2019-03-15T23:12:30.692Z,90.40
2019-03-15T23:14:59.120Z,90.60
2019-03-15T23:17:27.579Z,90.80
2019-03-15T23:19:56.052Z,91.00
2019-03-15T23:22:24.487Z,90.90
2019-03-15T23:24:52.934Z,90.90
2019-03-15T23:27:21.398Z,90.70
2019-03-15T23:29:49.845Z,90.70
2019-03-15T23:32:18.359Z,90.50
2019-03-15T23:34:46.800Z,90.50
2019-03-15T23:37:15.253Z,90.50
2019-03-15T23:39:43.658Z,90.40
2019-03-15T23:42:12.218Z,90.40
2019-03-15T23:44:40.638Z,90.40
2019-03-15T23:47:09.090Z,90.30
2019-03-15T23:49:37.618Z,90.20
2019-03-15T23:52:06.112Z,90.30
2019-03-15T23:54:34.587Z,90.30
2019-03-15T23:57:03.010Z,90.20
2019-03-15T23:59:31.529Z,90.20
